createdAt,value
2023-02-10T00:00:16.450Z,96.70
2023-02-10T00:02:43.331Z,96.90
2023-02-10T00:05:10.347Z,97.40
2023-02-10T00:07:37.153Z,97.50
2023-02-10T00:10:04.351Z,97.60
2023-02-10T00:12:31.205Z,98.20
2023-02-10T00:17:25.452Z,98.00
2023-02-10T00:19:52.292Z,98.40
2023-02-10T00:22:19.190Z,98.50
2023-02-10T00:24:46.060Z,99.50
2023-02-10T00:27:13.025Z,98.50
2023-02-10T00:29:39.883Z,98.40
2023-02-10T00:32:06.720Z,98.30
2023-02-10T00:34:33.584Z,98.50
2023-02-10T00:37:00.628Z,98.40
2023-02-10T00:39:27.538Z,98.40
2023-02-10T00:41:54.394Z,98.70
2023-02-10T00:44:21.357Z,98.90
2023-02-10T00:46:48.220Z,99.00
2023-02-10T00:49:15.310Z,99.00
2023-02-10T00:51:42.672Z,99.40
2023-02-10T00:54:12.611Z,99.90
2023-02-10T00:56:42.803Z,99.30
2023-02-10T00:59:12.789Z,99.50
2023-02-10T01:01:39.771Z,99.90
2023-02-10T01:04:06.644Z,99.90
2023-02-10T01:06:33.490Z,99.90
2023-02-10T01:09:00.351Z,99.90
2023-02-10T01:11:27.211Z,99.90
2023-02-10T01:13:54.056Z,99.90
2023-02-10T01:16:21.788Z,99.90
2023-02-10T01:18:48.812Z,99.90
2023-02-10T01:21:20.556Z,99.90
2023-02-10T01:23:48.912Z,99.90
2023-02-10T01:26:16.469Z,99.90
2023-02-10T01:28:43.984Z,99.90
2023-02-10T01:31:14.762Z,99.90
2023-02-10T01:33:42.650Z,99.90
2023-02-10T01:36:18.355Z,99.90
2023-02-10T01:38:46.471Z,99.90
2023-02-10T01:41:15.441Z,99.90
2023-02-10T01:43:59.497Z,99.90
2023-02-10T01:46:27.809Z,99.90
2023-02-10T01:48:58.071Z,99.90
2023-02-10T01:51:34.678Z,99.90
2023-02-10T01:54:02.473Z,99.90
2023-02-10T01:56:29.328Z,99.90
2023-02-10T01:58:57.133Z,99.90
2023-02-10T02:01:24.097Z,99.90
2023-02-10T02:03:51.770Z,99.90
2023-02-10T02:06:18.897Z,99.90
2023-02-10T02:08:46.086Z,99.90
2023-02-10T02:11:45.134Z,99.90
2023-02-10T02:14:24.994Z,99.90
2023-02-10T02:16:54.925Z,99.90
2023-02-10T02:19:45.914Z,99.90
2023-02-10T02:22:18.852Z,99.90
2023-02-10T02:25:00.008Z,99.90
2023-02-10T02:27:35.856Z,99.90
2023-02-10T02:30:33.592Z,99.90
2023-02-10T02:33:13.581Z,99.90
2023-02-10T02:35:49.096Z,99.90
2023-02-10T02:38:17.065Z,99.90
2023-02-10T02:40:43.948Z,99.90
2023-02-10T02:43:10.987Z,99.90
2023-02-10T02:46:08.992Z,99.90
2023-02-10T02:48:52.817Z,99.90
2023-02-10T02:51:38.140Z,99.90
2023-02-10T02:54:33.378Z,99.90
2023-02-10T02:57:45.296Z,99.90
2023-02-10T03:00:20.151Z,99.90
2023-02-10T03:02:49.012Z,99.90
2023-02-10T03:05:24.741Z,99.90
2023-02-10T03:07:51.651Z,99.90
2023-02-10T03:10:18.623Z,99.90
2023-02-10T03:12:45.556Z,99.90
2023-02-10T03:15:12.417Z,99.90
2023-02-10T03:17:39.409Z,99.90
2023-02-10T03:20:06.841Z,99.90
2023-02-10T03:22:33.668Z,99.90
2023-02-10T03:25:00.573Z,99.90
2023-02-10T03:27:27.507Z,99.90
2023-02-10T03:29:54.566Z,99.90
2023-02-10T03:32:21.704Z,99.90
2023-02-10T03:37:16.003Z,99.90
2023-02-10T03:39:42.999Z,99.90
2023-02-10T03:42:10.852Z,99.90
2023-02-10T03:44:37.858Z,99.90
2023-02-10T03:47:05.155Z,99.90
2023-02-10T03:49:32.024Z,99.90
2023-02-10T03:51:58.871Z,99.90
2023-02-10T03:54:25.782Z,99.90
2023-02-10T03:56:52.621Z,99.90
2023-02-10T03:59:19.473Z,99.90
2023-02-10T04:01:46.696Z,99.90
2023-02-10T04:04:13.624Z,99.90
2023-02-10T04:06:40.482Z,99.90
2023-02-10T04:09:07.353Z,99.90
2023-02-10T04:11:34.320Z,99.90
2023-02-10T04:14:01.180Z,99.90
2023-02-10T04:16:28.938Z,99.90
2023-02-10T04:18:56.180Z,99.90
2023-02-10T04:21:23.107Z,99.90
2023-02-10T04:23:49.931Z,99.90
2023-02-10T04:26:16.798Z,99.90
2023-02-10T04:28:43.888Z,99.90
2023-02-10T04:31:11.412Z,99.90
2023-02-10T04:33:38.514Z,99.90
2023-02-10T04:36:05.996Z,99.90
2023-02-10T04:38:33.159Z,99.90
2023-02-10T04:41:00.160Z,99.90
2023-02-10T04:43:27.004Z,99.90
2023-02-10T04:45:53.966Z,99.90
2023-02-10T04:48:22.209Z,99.90
2023-02-10T04:50:49.260Z,99.90
2023-02-10T04:53:16.472Z,99.90
2023-02-10T04:55:43.348Z,99.90
2023-02-10T04:58:10.213Z,99.90
2023-02-10T05:00:37.156Z,99.90
2023-02-10T05:03:04.140Z,99.90
2023-02-10T05:05:31.081Z,99.90
2023-02-10T05:07:57.953Z,99.90
2023-02-10T05:10:24.808Z,99.90
2023-02-10T05:12:51.601Z,99.90
2023-02-10T05:15:18.633Z,99.90
2023-02-10T05:17:45.485Z,99.90
2023-02-10T05:20:12.417Z,99.90
2023-02-10T05:22:40.309Z,99.90
2023-02-10T05:25:08.138Z,99.90
2023-02-10T05:27:35.970Z,99.90
2023-02-10T05:30:03.825Z,99.90
2023-02-10T05:32:30.603Z,99.90
2023-02-10T05:34:57.511Z,99.90
2023-02-10T05:37:24.352Z,99.90
2023-02-10T05:39:51.209Z,99.90
2023-02-10T05:42:18.089Z,99.90
2023-02-10T05:44:44.978Z,99.90
2023-02-10T05:47:11.868Z,99.90
2023-02-10T05:49:38.744Z,99.90
2023-02-10T05:52:08.227Z,99.90
2023-02-10T05:54:36.002Z,99.90
2023-02-10T05:57:03.179Z,99.90
2023-02-10T05:59:30.454Z,99.90
2023-02-10T06:01:57.624Z,99.90
2023-02-10T06:04:25.393Z,99.90
2023-02-10T06:06:52.650Z,99.90
2023-02-10T06:09:19.858Z,99.90
2023-02-10T06:11:46.984Z,99.90
2023-02-10T06:14:13.811Z,99.90
2023-02-10T06:16:40.697Z,99.90
2023-02-10T06:19:07.636Z,99.90
2023-02-10T06:21:34.618Z,99.90
2023-02-10T06:24:01.471Z,99.90
2023-02-10T06:26:28.960Z,99.90
2023-02-10T06:28:57.246Z,99.90
2023-02-10T06:31:26.553Z,99.90
2023-02-10T06:33:53.888Z,99.90
2023-02-10T06:36:20.925Z,99.90
2023-02-10T06:38:48.933Z,99.90
2023-02-10T06:41:15.980Z,99.90
2023-02-10T06:43:43.702Z,99.90
2023-02-10T06:46:11.789Z,99.90
2023-02-10T06:48:38.695Z,99.90
2023-02-10T06:51:05.842Z,99.90
2023-02-10T06:53:32.738Z,99.90
2023-02-10T06:56:00.121Z,99.90
2023-02-10T06:58:27.041Z,99.90
2023-02-10T07:03:21.299Z,99.90
2023-02-10T07:05:48.463Z,99.90
2023-02-10T07:08:15.607Z,99.90
2023-02-10T07:10:42.439Z,99.90
2023-02-10T07:13:09.357Z,99.90
2023-02-10T07:15:36.287Z,99.90
2023-02-10T07:18:03.245Z,99.90
2023-02-10T07:20:30.222Z,99.90
2023-02-10T07:22:57.064Z,99.90
2023-02-10T07:25:23.979Z,99.90
2023-02-10T07:30:18.508Z,99.90
2023-02-10T07:32:45.448Z,99.90
2023-02-10T07:35:13.289Z,99.90
2023-02-10T07:37:41.021Z,99.90
2023-02-10T08:30:48.219Z,99.90
2023-02-10T08:40:58.678Z,99.90
2023-02-10T08:43:26.370Z,99.90
2023-02-10T08:46:10.090Z,99.90
2023-02-10T08:51:10.880Z,99.90
2023-02-10T08:56:08.916Z,99.90
2023-02-10T09:01:10.406Z,99.90
2023-02-10T09:03:38.586Z,99.90
2023-02-10T09:28:11.237Z,99.90
2023-02-10T09:33:05.310Z,99.90
2023-02-10T09:40:32.799Z,99.90
2023-02-10T09:43:12.310Z,99.90
2023-02-10T09:45:41.349Z,99.90
2023-02-10T09:53:19.907Z,99.90
2023-02-10T09:56:03.257Z,99.90
2023-02-10T09:58:48.110Z,99.90
2023-02-10T10:01:35.997Z,99.90
2023-02-10T10:04:14.555Z,99.90
2023-02-10T10:06:44.667Z,99.90
2023-02-10T10:11:53.857Z,99.90
2023-02-10T10:18:28.767Z,99.90
2023-02-10T10:21:15.246Z,99.90
2023-02-10T10:29:43.365Z,99.90
2023-02-10T10:32:20.857Z,99.90
2023-02-10T10:34:53.959Z,99.90
2023-02-10T10:37:26.240Z,99.90
2023-02-10T10:39:58.257Z,99.90
2023-02-10T10:45:37.781Z,99.90
2023-02-10T10:48:30.847Z,99.90
2023-02-10T10:51:05.544Z,99.90
2023-02-10T10:53:38.174Z,99.90
2023-02-10T10:56:08.718Z,99.90
2023-02-10T10:58:45.232Z,99.90
2023-02-10T11:01:16.428Z,99.90
2023-02-10T11:07:03.132Z,99.90
2023-02-10T11:09:44.298Z,99.90
2023-02-10T11:12:25.268Z,99.90
2023-02-10T11:21:39.804Z,99.90
2023-02-10T11:24:34.409Z,99.90
2023-02-10T11:27:35.825Z,99.90
2023-02-10T11:30:43.347Z,99.90
2023-02-10T11:33:24.214Z,99.90
2023-02-10T11:36:05.138Z,99.90
2023-02-10T11:38:40.690Z,99.90
2023-02-10T11:41:11.483Z,99.90
2023-02-10T11:43:44.612Z,99.90
2023-02-10T11:46:29.357Z,99.90
2023-02-10T11:49:09.953Z,99.90
2023-02-10T11:54:10.554Z,99.90
2023-02-10T11:57:24.582Z,99.90
2023-02-10T12:00:24.717Z,99.90
2023-02-10T12:03:35.908Z,99.90
2023-02-10T12:06:36.829Z,99.90
2023-02-10T12:09:29.355Z,99.90
2023-02-10T12:15:01.220Z,99.90
2023-02-10T12:17:38.068Z,99.90
2023-02-10T12:20:13.926Z,99.90
2023-02-10T12:23:23.659Z,99.90
2023-02-10T12:25:54.541Z,99.90
2023-02-10T12:28:34.937Z,99.90
2023-02-10T12:31:29.396Z,99.90
2023-02-10T12:34:25.834Z,99.90
2023-02-10T12:37:09.809Z,99.90
2023-02-10T12:39:55.583Z,99.90
2023-02-10T12:42:42.602Z,99.90
2023-02-10T12:45:33.499Z,99.90
2023-02-10T12:48:29.282Z,99.90
2023-02-10T12:51:11.252Z,99.90
2023-02-10T12:53:43.885Z,99.90
2023-02-10T12:56:21.219Z,99.90
2023-02-10T12:58:54.175Z,99.90
2023-02-10T13:03:54.774Z,99.90
2023-02-10T13:06:42.234Z,99.90
2023-02-10T13:09:24.225Z,99.90
2023-02-10T13:12:06.447Z,99.90
2023-02-10T13:14:38.387Z,99.90
2023-02-10T13:20:05.522Z,99.90
2023-02-10T13:23:03.544Z,99.90
2023-02-10T13:26:29.871Z,99.90
2023-02-10T13:31:53.562Z,99.90
2023-02-10T13:34:42.050Z,99.90
2023-02-10T13:39:37.407Z,99.90
2023-02-10T13:42:18.792Z,99.90
2023-02-10T13:47:30.305Z,99.90
2023-02-10T13:50:04.909Z,99.90
2023-02-10T13:52:35.796Z,99.90
2023-02-10T13:55:11.626Z,99.90
2023-02-10T13:57:50.947Z,99.90
2023-02-10T14:00:25.038Z,99.90
2023-02-10T14:03:21.872Z,99.90
2023-02-10T14:05:59.088Z,99.90
2023-02-10T14:08:53.705Z,99.90
2023-02-10T14:11:41.942Z,99.90
2023-02-10T14:14:22.577Z,99.90
2023-02-10T14:16:50.999Z,99.90
2023-02-10T14:19:36.683Z,99.90
2023-02-10T14:22:07.852Z,99.90
2023-02-10T14:24:50.395Z,99.90
2023-02-10T14:27:20.204Z,99.90
2023-02-10T14:29:56.713Z,99.90
2023-02-10T14:34:58.406Z,99.90
2023-02-10T14:40:05.203Z,99.90
2023-02-10T14:42:34.030Z,99.90
2023-02-10T14:50:48.899Z,99.90
2023-02-10T14:53:29.263Z,99.90
2023-02-10T14:56:02.995Z,99.90
2023-02-10T15:01:21.001Z,99.90
2023-02-10T15:06:32.691Z,99.90
2023-02-10T15:09:10.811Z,99.90
2023-02-10T15:12:15.916Z,99.90
2023-02-10T15:15:13.675Z,99.90
2023-02-10T15:17:54.157Z,99.90
2023-02-10T15:20:35.046Z,99.90
2023-02-10T15:28:11.570Z,99.90
2023-02-10T15:31:03.329Z,99.90
2023-02-10T15:34:00.042Z,99.90
2023-02-10T15:36:34.769Z,99.90
2023-02-10T15:39:28.999Z,99.90
2023-02-10T15:44:57.677Z,99.90
2023-02-10T15:50:21.964Z,99.90
2023-02-10T15:53:00.895Z,99.90
2023-02-10T16:03:51.231Z,99.90
2023-02-10T16:17:26.806Z,99.90
2023-02-10T16:19:54.094Z,99.90
2023-02-10T16:24:49.379Z,99.90
2023-02-10T16:51:52.320Z,99.90
2023-02-10T16:54:23.934Z,99.90
2023-02-10T16:59:22.874Z,99.90
2023-02-10T17:06:55.958Z,99.90
2023-02-10T17:09:31.885Z,99.90
2023-02-10T17:39:44.930Z,99.90
2023-02-10T17:47:30.662Z,99.90
2023-02-10T17:58:50.744Z,99.90
2023-02-10T18:05:49.754Z,99.90
2023-02-10T18:08:16.891Z,99.90
2023-02-10T18:33:17.410Z,99.90
2023-02-10T18:35:50.995Z,99.90
2023-02-10T18:52:19.885Z,99.90
2023-02-10T19:00:50.649Z,99.90
2023-02-10T19:08:12.113Z,99.90
2023-02-10T19:15:37.598Z,99.90
2023-02-10T19:25:41.849Z,99.90
2023-02-10T19:30:41.998Z,99.90
2023-02-10T19:38:05.747Z,99.90
2023-02-10T20:00:16.092Z,99.90
2023-02-10T20:07:48.819Z,99.90
2023-02-10T20:10:23.792Z,99.90
2023-02-10T20:15:36.671Z,99.90
2023-02-10T20:30:45.530Z,99.90
2023-02-10T20:38:26.336Z,99.90
2023-02-10T20:41:04.024Z,99.90
2023-02-10T20:48:27.864Z,99.90
2023-02-10T20:50:59.313Z,99.90
2023-02-10T20:56:01.320Z,99.90
2023-02-10T21:01:03.113Z,99.90
2023-02-10T21:03:46.464Z,99.90
2023-02-10T21:06:27.712Z,99.90
2023-02-10T21:14:41.809Z,99.90
2023-02-10T21:20:34.695Z,99.90
2023-02-10T21:26:05.568Z,99.90
2023-02-10T21:35:34.992Z,99.90
2023-02-10T21:38:09.094Z,99.90
2023-02-10T21:40:35.956Z,99.90
2023-02-10T21:47:58.013Z,99.90
2023-02-10T21:50:25.157Z,99.90
2023-02-10T21:52:51.994Z,99.90
2023-02-10T21:55:18.938Z,99.90
2023-02-10T21:57:45.772Z,99.90
2023-02-10T22:00:13.317Z,99.90
2023-02-10T22:02:41.697Z,99.90
2023-02-10T22:05:08.623Z,99.90
2023-02-10T22:07:36.826Z,99.90
2023-02-10T22:10:05.481Z,99.90
2023-02-10T22:12:32.859Z,99.90
2023-02-10T22:14:59.685Z,99.90
2023-02-10T22:17:26.905Z,99.90
2023-02-10T22:19:53.767Z,99.90
2023-02-10T22:24:47.925Z,99.90
2023-02-10T22:27:14.818Z,99.90
2023-02-10T22:29:41.779Z,99.90
2023-02-10T22:32:08.692Z,99.90
2023-02-10T22:34:35.557Z,99.90
2023-02-10T22:37:02.490Z,99.90
2023-02-10T22:39:29.429Z,99.90
2023-02-10T22:41:56.330Z,99.90
2023-02-10T22:44:23.183Z,99.90
2023-02-10T22:46:50.050Z,99.90
2023-02-10T22:49:16.936Z,99.90
2023-02-10T22:51:44.207Z,99.90
2023-02-10T22:54:13.207Z,99.90
2023-02-10T22:56:41.573Z,99.90
2023-02-10T22:59:09.174Z,99.90
2023-02-10T23:04:04.942Z,99.90
2023-02-10T23:08:59.195Z,99.90
2023-02-10T23:11:30.891Z,99.90
2023-02-10T23:13:59.432Z,99.90
2023-02-10T23:16:26.597Z,99.90
2023-02-10T23:18:54.737Z,99.90
2023-02-10T23:21:23.942Z,99.90
2023-02-10T23:23:51.725Z,99.90
2023-02-10T23:26:23.681Z,99.90
2023-02-10T23:28:50.843Z,99.90
2023-02-10T23:31:22.045Z,99.90
2023-02-10T23:33:51.228Z,99.90
2023-02-10T23:36:18.556Z,99.90
2023-02-10T23:38:45.519Z,99.90
2023-02-10T23:41:12.448Z,99.90
2023-02-10T23:43:39.350Z,99.90
2023-02-10T23:46:07.635Z,99.90
2023-02-10T23:48:35.386Z,99.90
2023-02-10T23:51:10.564Z,99.90
2023-02-10T23:53:37.450Z,99.90
2023-02-10T23:56:05.771Z,99.90
2023-02-10T23:58:32.959Z,99.90
